x

Destruction Island, Wa (desw1) Weather Station

9:00pm - Tue 21st Oct 2014 All times are PDT. -7 hours from GMT.

  • Wind
    53mph, 59mph gusts
  • 空気 Temp 56°f
  • Sea Pressure 1002.9mb
  • Destruction Island, Wa
  • Destruction Island, Wa

More Historic Weather Station data

Upgrade to MSW Pro to gain access to the past 30 days of data for over 8000 Wavebouys and Weather Stations around the globe.

Join Pro

Comparision Forecast

View Surf forecast
   
Tue 10/21 9:00pm 53 59 mph 1002.9mb 56f
8:00pm 51 60 mph 1004.1mb 58f
7:00pm 45 52 mph 1005.3mb 59f
6:00pm 44 47 mph 1006.4mb 58f
5:00pm 37 43 mph 1007.5mb 59f
4:00pm 39 43 mph 1007.4mb 58f
3:00pm 37 43 mph 1008.6mb 59f
2:00pm 30 36 mph 1009.4mb 59f
1:00pm 30 36 mph 1010.1mb 59f
12:00pm 28 30 mph 1010.5mb 57f
11:00am 23 26 mph 1010.6mb 56f
10:00am 21 23 mph 1010.4mb 57f
9:00am 21 23 mph 1010mb 56f
8:00am 17 21 mph 1009.5mb 56f
7:00am 17 20 mph 1009.5mb 55f
6:00am 14 16 mph 1009.3mb 56f
5:00am 16 17 mph 1008.9mb 55f
4:00am 9 10 mph 1008.6mb 55f
3:00am 16 17 mph 1008.2mb 55f
2:00am 15 16 mph 1007.9mb 55f
1:00am 21 24 mph 1007.4mb 56f
12:00am 21 23 mph 1007.1mb 55f
Mon 10/20 11:00pm 23 25 mph 1006.9mb 56f
10:00pm 22 24 mph 1006.8mb 56f
9:00pm 15 20 mph 1006.8mb 57f
8:00pm 18 20 mph 1006.5mb 59f
7:00pm 22 25 mph 1006.3mb 59f
6:00pm 20 24 mph 1006.3mb 58f
5:00pm 17 20 mph 1006.4mb 59f
4:00pm 25 29 mph 1006.5mb 57f
3:00pm 25 29 mph 1006.3mb 58f
2:00pm 22 25 mph 1006.1mb 58f
1:00pm 25 30 mph 1006.4mb 58f
12:00pm 20 21 mph 1006.4mb 58f
11:00am 21 22 mph 1006.4mb 57f
10:00am 20 23 mph 1006.2mb 57f
9:00am 22 25 mph 1005.7mb 57f
8:00am 21 23 mph 1004.8mb 56f
7:00am 22 25 mph 1004.5mb 58f
6:00am 22 24 mph 1004.5mb 57f
5:00am 20 22 mph 1004.4mb 56f
4:00am 22 24 mph 1004.4mb 56f
3:00am 21 23 mph 1004.5mb 56f
2:00am 20 22 mph 1004.4mb 57f
1:00am 22 26 mph 1004.6mb 57f
12:00am 25 29 mph 1004.2mb 57f
Sun 10/19 11:00pm 23 28 mph 1004.2mb 57f
10:00pm 17 20 mph 1004.1mb 57f
9:00pm 17 21 mph 1004.4mb 56f
8:00pm 13 15 mph 1004.6mb 56f
7:00pm 16 17 mph 1004.6mb 55f
6:00pm 14 16 mph 1004.8mb 56f
5:00pm 23 25 mph 1004.5mb 56f
4:00pm 43 47 mph 1003.8mb 58f
3:00pm 49 54 mph 1003.5mb 59f
2:00pm 45 49 mph 1003.4mb 63f
1:00pm 46 53 mph 1004.2mb 62f
12:00pm 39 44 mph 1004.8mb 62f
11:00am 37 40 mph 1004.7mb 61f
10:00am 34 39 mph 1004.6mb 61f
9:00am 36 39 mph 1004.4mb 60f
8:00am 38 41 mph 1004.2mb 60f
7:00am 33 38 mph 1004.3mb 60f
6:00am 37 41 mph 1004.7mb 60f
5:00am 26 30 mph 1005.7mb 59f
4:00am 32 36 mph 1006.7mb 60f
3:00am 28 31 mph 1007.1mb 61f
2:00am 26 29 mph 1006.8mb 61f
1:00am 24 26 mph 1006.5mb 61f
12:00am 24 26 mph 1007.4mb 62f
Sat 10/18 11:00pm 26 28 mph 1007.5mb 62f
10:00pm 28 30 mph 1007.9mb 61f
9:00pm 26 29 mph 1008.8mb 59f
8:00pm 24 26 mph 1009.5mb 59f
7:00pm 20 22 mph 1010.3mb 58f
6:00pm 20 23 mph 1011mb 59f
5:00pm 25 28 mph 1011.5mb 60f
4:00pm 22 24 mph 1012.1mb 59f
3:00pm 15 16 mph 1012.6mb 60f
2:00pm 24 25 mph 1012.6mb 60f
1:00pm 29 31 mph 1012.7mb 60f
12:00pm 25 30 mph 1012.5mb 58f
11:00am 23 26 mph 1012.1mb 59f
10:00am 18 21 mph 1012.2mb 59f
9:00am 21 22 mph 1011.8mb 59f
8:00am 24 26 mph 1011.4mb 59f
7:00am 24 28 mph 1010.9mb 59f
6:00am 18 21 mph 1010.9mb 59f